FCO weather

Leonardo da Vinci–Fiumicino Airport
Rome, Lazio, Italy

Public forecast

Using degrees Celsius for public forecast. Weather courtesy of forecast.io.

Current aviation weather report (METAR) for Leonardo da Vinci–Fiumicino Airport

Retrieved 2020/04/03 20:20 UTC (1 minute ago):

LIRF 032020Z 31003KT 280V360 CAVOK 10/07 Q1012 NOSIG

Aviation forecast (TAF) for Leonardo da Vinci–Fiumicino Airport

Retrieved 2020/04/03 18:00 UTC (2 hours ago):

TAF LIRF 031700Z 0318/0424 31012KT CAVOK BECMG 0319/0321 VRB06KT BECMG 0405/0407 03014KT